createdAt,value
2023-05-08T00:02:20.472Z,98895.22
2023-05-08T00:04:47.089Z,98894.75
2023-05-08T00:07:13.579Z,98890.34
2023-05-08T00:09:40.061Z,98893.13
2023-05-08T00:12:06.531Z,98889.78
2023-05-08T00:14:32.988Z,98885.72
2023-05-08T00:16:59.476Z,98888.00
2023-05-08T00:19:25.989Z,98883.06
2023-05-08T00:21:52.442Z,98877.94
2023-05-08T00:24:18.854Z,98888.06
2023-05-08T00:26:45.736Z,98887.06
2023-05-08T00:29:12.471Z,98901.75
2023-05-08T00:31:39.019Z,98897.16
2023-05-08T00:34:05.599Z,98898.47
2023-05-08T00:36:32.395Z,98891.53
2023-05-08T00:38:58.740Z,98903.41
2023-05-08T00:41:25.209Z,98903.94
2023-05-08T00:43:51.670Z,98896.81
2023-05-08T00:46:18.326Z,98900.69
2023-05-08T00:48:45.965Z,98900.44
2023-05-08T00:51:13.167Z,98892.53
2023-05-08T00:53:42.880Z,98904.22
2023-05-08T00:56:12.680Z,98903.34
2023-05-08T00:58:39.713Z,98898.13
2023-05-08T01:01:06.437Z,98898.28
2023-05-08T01:03:35.228Z,98904.41
2023-05-08T01:06:04.912Z,98897.66
2023-05-08T01:08:31.901Z,98896.31
2023-05-08T01:11:24.921Z,98899.97
2023-05-08T01:14:03.429Z,98893.69
2023-05-08T01:16:37.030Z,98898.66
2023-05-08T01:19:47.817Z,98899.66
2023-05-08T01:22:33.835Z,98898.44
2023-05-08T01:25:31.828Z,98896.81
2023-05-08T01:28:17.488Z,98906.44
2023-05-08T01:31:02.454Z,98901.50
2023-05-08T01:34:03.237Z,98909.78
2023-05-08T01:36:55.942Z,98906.34
2023-05-08T01:39:44.887Z,98909.28
2023-05-08T01:42:29.772Z,98911.03
2023-05-08T01:45:12.708Z,98908.97
2023-05-08T01:47:41.460Z,98907.50
2023-05-08T01:50:20.944Z,98914.84
2023-05-08T01:52:51.541Z,98912.31
2023-05-08T01:55:24.464Z,98908.75
2023-05-08T01:57:54.148Z,98914.31
2023-05-08T02:00:23.944Z,98912.31
2023-05-08T02:02:52.355Z,98921.88
2023-05-08T02:05:22.541Z,98921.88
2023-05-08T02:07:49.985Z,98919.09
2023-05-08T02:10:17.558Z,98931.28
2023-05-08T02:12:45.282Z,98926.81
2023-05-08T02:15:15.210Z,98922.38
2023-05-08T02:17:43.587Z,98930.34
2023-05-08T02:20:15.016Z,98926.53
2023-05-08T02:22:45.934Z,98924.69
2023-05-08T02:25:14.582Z,98927.72
2023-05-08T02:27:45.446Z,98929.81
2023-05-08T02:30:17.023Z,98930.78
2023-05-08T02:32:45.025Z,98931.94
2023-05-08T02:35:17.130Z,98927.72
2023-05-08T02:37:46.693Z,98937.50
2023-05-08T02:40:14.748Z,98935.19
2023-05-08T02:42:41.713Z,98933.34
2023-05-08T02:45:09.521Z,98941.28
2023-05-08T02:48:23.641Z,98941.56
2023-05-08T02:51:20.109Z,98940.13
2023-05-08T02:53:52.976Z,98949.81
2023-05-08T02:56:37.500Z,98942.88
2023-05-08T02:59:22.130Z,98948.13
2023-05-08T03:01:59.082Z,98943.84
2023-05-08T03:04:49.730Z,98942.47
2023-05-08T03:07:16.480Z,98949.66
2023-05-08T03:09:50.680Z,98940.19
2023-05-08T03:12:23.650Z,98942.75
2023-05-08T03:15:00.023Z,98941.31
2023-05-08T03:17:31.268Z,98938.72
2023-05-08T03:20:02.982Z,98941.50
2023-05-08T03:22:31.062Z,98945.22
2023-05-08T03:25:01.413Z,98948.59
2023-05-08T03:27:30.393Z,98947.22
2023-05-08T03:29:59.641Z,98947.97
2023-05-08T03:32:28.228Z,98947.81
2023-05-08T03:34:58.547Z,98940.78
2023-05-08T03:37:27.629Z,98940.19
2023-05-08T03:39:55.968Z,98935.91
2023-05-08T03:42:24.295Z,98941.88
2023-05-08T03:44:52.358Z,98943.94
2023-05-08T03:47:19.878Z,98940.63
2023-05-08T03:49:47.362Z,98949.88
2023-05-08T03:52:14.861Z,98949.44
2023-05-08T03:54:41.744Z,98953.25
2023-05-08T03:57:08.461Z,98942.97
2023-05-08T03:59:40.552Z,98944.94
2023-05-08T04:02:30.226Z,98945.69
2023-05-08T04:05:05.567Z,98953.94
2023-05-08T04:07:37.999Z,98944.13
2023-05-08T04:10:12.343Z,98953.41
2023-05-08T04:12:51.866Z,98950.59
2023-05-08T04:15:22.452Z,98954.19
2023-05-08T04:18:28.554Z,98950.50
2023-05-08T04:20:56.398Z,98957.78
2023-05-08T04:23:24.461Z,98954.56
2023-05-08T04:25:53.024Z,98960.72
2023-05-08T04:28:20.931Z,98954.19
2023-05-08T04:30:47.865Z,98955.28
2023-05-08T04:33:15.558Z,98961.31
2023-05-08T04:35:42.587Z,98963.72
2023-05-08T04:38:09.238Z,98964.13
2023-05-08T04:40:35.769Z,98963.31
2023-05-08T04:43:02.232Z,98970.19
2023-05-08T04:45:28.766Z,98970.88
2023-05-08T04:47:55.248Z,98972.41
2023-05-08T04:50:21.810Z,98971.31
2023-05-08T04:52:48.482Z,98969.47
2023-05-08T04:55:15.232Z,98973.88
2023-05-08T04:57:41.701Z,98977.47
2023-05-08T05:00:08.953Z,98971.88
2023-05-08T05:02:35.652Z,98981.97
2023-05-08T05:05:02.292Z,98977.06
2023-05-08T05:07:28.696Z,98982.97
2023-05-08T05:09:55.340Z,98984.81
2023-05-08T05:12:21.765Z,98988.78
2023-05-08T05:14:48.280Z,98989.31
2023-05-08T05:17:14.753Z,98989.38
2023-05-08T05:19:41.226Z,98991.72
2023-05-08T05:22:08.243Z,98987.63
2023-05-08T05:24:39.452Z,98996.53
2023-05-08T05:27:06.066Z,99003.81
2023-05-08T05:29:32.745Z,99003.69
2023-05-08T05:31:59.259Z,99005.94
2023-05-08T05:34:25.804Z,99011.69
2023-05-08T05:36:52.407Z,99007.50
2023-05-08T05:39:18.924Z,99007.09
2023-05-08T05:41:45.725Z,99020.75
2023-05-08T05:44:12.729Z,99020.63
2023-05-08T05:46:40.178Z,99019.41
2023-05-08T05:49:08.061Z,99016.16
2023-05-08T05:51:34.491Z,99019.09
2023-05-08T05:54:01.023Z,99017.00
2023-05-08T05:56:27.919Z,99027.81
2023-05-08T05:58:54.397Z,99023.63
2023-05-08T06:01:21.178Z,99023.59
2023-05-08T06:03:47.837Z,99028.81
2023-05-08T06:06:14.509Z,99019.81
2023-05-08T06:08:41.002Z,99031.88
2023-05-08T06:11:07.622Z,99027.94
2023-05-08T06:13:34.295Z,99029.91
2023-05-08T06:16:00.963Z,99028.91
2023-05-08T06:18:27.574Z,99028.25
2023-05-08T06:20:58.063Z,99032.97
2023-05-08T06:23:25.053Z,99034.47
2023-05-08T06:25:51.570Z,99036.47
2023-05-08T06:28:18.137Z,99035.97
2023-05-08T06:30:44.633Z,99039.78
2023-05-08T06:33:11.317Z,99042.28
2023-05-08T06:35:37.889Z,99044.22
2023-05-08T06:38:04.478Z,99040.31
2023-05-08T06:40:31.437Z,99044.41
2023-05-08T06:42:57.984Z,99045.81
2023-05-08T06:45:24.481Z,99043.16
2023-05-08T06:47:51.104Z,99042.81
2023-05-08T06:50:17.731Z,99049.41
2023-05-08T06:52:44.144Z,99043.66
2023-05-08T06:55:10.734Z,99044.97
2023-05-08T06:57:37.209Z,99042.88
2023-05-08T07:00:04.287Z,99045.91
2023-05-08T07:02:30.790Z,99038.81
2023-05-08T07:04:57.274Z,99045.56
2023-05-08T07:07:23.972Z,99042.22
2023-05-08T07:09:50.535Z,99039.38
2023-05-08T07:12:17.154Z,99036.53
2023-05-08T07:14:43.760Z,99046.41
2023-05-08T07:17:10.316Z,99041.41
2023-05-08T07:19:37.576Z,99031.53
2023-05-08T07:22:05.564Z,99038.22
2023-05-08T07:24:32.532Z,99040.81
2023-05-08T07:27:02.214Z,99039.56
2023-05-08T07:29:28.713Z,99040.59
2023-05-08T07:31:55.327Z,99039.22
2023-05-08T07:34:21.929Z,99046.47
2023-05-08T07:36:48.948Z,99044.88
2023-05-08T07:39:15.619Z,99042.22
2023-05-08T07:41:42.459Z,99033.75
2023-05-08T07:44:09.314Z,99040.88
2023-05-08T07:46:35.835Z,99044.75
2023-05-08T07:49:02.462Z,99050.81
2023-05-08T07:51:29.224Z,99045.56
2023-05-08T07:53:55.741Z,99042.19
2023-05-08T07:56:25.027Z,99048.53
2023-05-08T07:58:51.581Z,99046.72
2023-05-08T08:01:18.277Z,99053.84
2023-05-08T08:03:46.190Z,99054.41
2023-05-08T08:06:13.326Z,99038.81
2023-05-08T08:08:39.843Z,99046.16
2023-05-08T08:11:07.336Z,99046.13
2023-05-08T08:13:34.202Z,99045.94
2023-05-08T08:16:01.619Z,99047.88
2023-05-08T08:18:28.638Z,99049.44
2023-05-08T08:20:55.417Z,99040.59
2023-05-08T08:23:21.945Z,99044.31
2023-05-08T08:25:48.448Z,99041.25
2023-05-08T08:28:14.904Z,99046.94
2023-05-08T08:30:41.679Z,99048.25
2023-05-08T08:33:08.355Z,99046.63
2023-05-08T08:35:35.036Z,99050.84
2023-05-08T08:38:01.736Z,99047.47
2023-05-08T08:40:28.475Z,99055.44
2023-05-08T08:42:55.546Z,99053.66
2023-05-08T08:45:22.148Z,99052.16
2023-05-08T08:47:51.897Z,99060.56
2023-05-08T08:50:20.196Z,99053.53
2023-05-08T08:52:54.202Z,99052.22
2023-05-08T08:55:23.262Z,99065.91
2023-05-08T08:58:01.612Z,99062.41
2023-05-08T09:00:32.204Z,99067.38
2023-05-08T09:02:59.111Z,99064.75
2023-05-08T09:05:26.613Z,99068.59
2023-05-08T09:07:56.359Z,99067.16
2023-05-08T09:10:24.330Z,99067.38
2023-05-08T09:12:50.908Z,99069.72
2023-05-08T09:15:17.816Z,99069.50
2023-05-08T09:17:44.384Z,99066.66
2023-05-08T09:20:12.080Z,99070.50
2023-05-08T09:22:39.034Z,99064.75
2023-05-08T09:25:06.477Z,99072.19
2023-05-08T09:27:33.347Z,99066.06
2023-05-08T09:30:05.160Z,99066.13
2023-05-08T09:32:33.781Z,99073.34
2023-05-08T09:35:01.519Z,99077.53
2023-05-08T09:37:29.372Z,99083.34
2023-05-08T09:40:16.637Z,99088.25
2023-05-08T09:42:43.814Z,99084.66
2023-05-08T09:45:11.219Z,99089.44
2023-05-08T09:47:39.508Z,99089.00
2023-05-08T09:50:07.831Z,99090.91
2023-05-08T09:52:36.590Z,99096.44
2023-05-08T09:55:08.680Z,99091.75
2023-05-08T09:57:51.276Z,99086.06
2023-05-08T10:00:18.005Z,99087.59
2023-05-08T10:02:59.786Z,99083.47
2023-05-08T10:05:32.228Z,99085.09
2023-05-08T10:08:17.278Z,99084.56
2023-05-08T10:10:43.857Z,99089.44
2023-05-08T10:16:53.294Z,99082.47
2023-05-08T10:19:30.405Z,99073.91
2023-05-08T10:23:52.505Z,99075.09
2023-05-08T10:25:36.448Z,99065.47
2023-05-08T10:28:32.960Z,99074.16
2023-05-08T10:31:05.406Z,99065.75
2023-05-08T10:33:34.952Z,99071.13
2023-05-08T10:36:01.926Z,99080.25
2023-05-08T10:38:28.668Z,99076.72
2023-05-08T10:40:58.263Z,99069.72
2023-05-08T10:43:25.737Z,99072.34
2023-05-08T10:45:55.005Z,99071.31
2023-05-08T10:48:54.123Z,99063.59
2023-05-08T10:51:41.785Z,99073.50
2023-05-08T10:54:19.247Z,99070.16
2023-05-08T10:56:46.042Z,99064.81
2023-05-08T10:59:21.238Z,99067.66
2023-05-08T11:01:49.481Z,99057.09
2023-05-08T11:04:23.632Z,99065.47
2023-05-08T11:06:53.219Z,99060.75
2023-05-08T11:09:27.332Z,99060.59
2023-05-08T11:12:16.735Z,99064.09
2023-05-08T11:14:53.263Z,99050.63
2023-05-08T11:17:24.350Z,99064.91
2023-05-08T11:20:02.315Z,99054.09
2023-05-08T11:22:30.120Z,99054.19
2023-05-08T11:25:14.751Z,99046.50
2023-05-08T11:28:01.616Z,99056.63
2023-05-08T11:30:38.580Z,99050.69
2023-05-08T11:33:05.265Z,99039.81
2023-05-08T11:35:56.486Z,99044.84
2023-05-08T11:38:38.052Z,99049.22
2023-05-08T11:41:34.162Z,99044.25
2023-05-08T11:44:09.336Z,99051.38
2023-05-08T11:46:40.409Z,99045.63
2023-05-08T11:49:11.837Z,99043.00
2023-05-08T11:51:39.122Z,99044.78
2023-05-08T11:54:06.000Z,99045.75
2023-05-08T11:56:33.563Z,99044.78
2023-05-08T11:59:08.791Z,99049.34
2023-05-08T12:01:35.851Z,99062.16
2023-05-08T12:04:03.579Z,99054.53
2023-05-08T12:06:32.218Z,99056.75
2023-05-08T12:08:59.800Z,99045.63
2023-05-08T12:11:26.734Z,99046.56
2023-05-08T12:13:54.555Z,99049.25
2023-05-08T12:16:23.164Z,99048.63
2023-05-08T12:18:51.698Z,99050.31
2023-05-08T12:21:19.673Z,99051.31
2023-05-08T12:23:46.739Z,99050.84
2023-05-08T12:26:13.761Z,99053.44
2023-05-08T12:28:43.137Z,99044.63
2023-05-08T12:31:10.409Z,99045.06
2023-05-08T12:33:38.606Z,99042.31
2023-05-08T12:36:06.803Z,99046.75
2023-05-08T12:38:33.376Z,99038.09
2023-05-08T12:41:04.408Z,99040.53
2023-05-08T12:43:32.829Z,99042.13
2023-05-08T12:45:59.411Z,99035.16
2023-05-08T12:48:26.912Z,99039.06
2023-05-08T12:50:53.529Z,99031.88
2023-05-08T12:53:22.793Z,99032.91
2023-05-08T12:55:54.723Z,99033.84
2023-05-08T12:58:25.850Z,99035.06
2023-05-08T13:00:53.442Z,99029.03
2023-05-08T13:03:29.300Z,99031.00
2023-05-08T13:05:57.742Z,99021.19
2023-05-08T13:08:37.644Z,99026.22
2023-05-08T13:11:05.901Z,99028.63
2023-05-08T13:13:36.824Z,99027.97
2023-05-08T13:16:05.783Z,99027.94
2023-05-08T13:18:33.240Z,99024.03
2023-05-08T13:21:01.376Z,99029.56
2023-05-08T13:23:28.832Z,99025.09
2023-05-08T13:25:55.943Z,99013.28
2023-05-08T13:28:22.555Z,99023.81
2023-05-08T13:30:49.159Z,99016.81
2023-05-08T13:33:15.677Z,99015.69
2023-05-08T13:35:42.251Z,99013.84
2023-05-08T13:38:08.971Z,99012.53
2023-05-08T13:40:35.839Z,99013.72
2023-05-08T13:43:02.325Z,99012.66
2023-05-08T13:45:28.956Z,99001.94
2023-05-08T13:47:55.597Z,99000.78
2023-05-08T13:50:22.207Z,98993.09
2023-05-08T13:52:49.686Z,98994.72
2023-05-08T13:55:17.705Z,98986.56
2023-05-08T13:57:44.342Z,98980.34
2023-05-08T14:00:11.718Z,98983.31
2023-05-08T14:02:38.361Z,98980.69
2023-05-08T14:05:05.680Z,98973.19
2023-05-08T14:07:32.167Z,98974.31
2023-05-08T14:09:58.775Z,98965.25
2023-05-08T14:12:25.464Z,98965.88
2023-05-08T14:14:52.226Z,98976.41
2023-05-08T14:17:18.936Z,98970.06
2023-05-08T14:19:46.245Z,98970.75
2023-05-08T14:22:12.715Z,98975.88
2023-05-08T14:24:39.725Z,98961.63
2023-05-08T14:27:06.428Z,98967.84
2023-05-08T14:29:33.789Z,98960.44
2023-05-08T14:32:00.446Z,98962.59
2023-05-08T14:34:27.048Z,98966.19
2023-05-08T14:36:53.670Z,98964.59
2023-05-08T14:39:20.308Z,98959.75
2023-05-08T14:41:59.727Z,98954.25
2023-05-08T14:44:33.590Z,98945.69
2023-05-08T14:47:00.373Z,98940.97
2023-05-08T14:49:36.727Z,98933.66
2023-05-08T14:52:05.083Z,98934.59
2023-05-08T14:54:31.812Z,98937.91
2023-05-08T14:56:58.493Z,98934.25
2023-05-08T14:59:24.952Z,98935.72
2023-05-08T15:01:51.696Z,98928.25
2023-05-08T15:04:19.249Z,98924.28
2023-05-08T15:06:46.204Z,98934.88
2023-05-08T15:09:13.153Z,98928.69
2023-05-08T15:11:40.181Z,98923.22
2023-05-08T15:14:06.897Z,98921.78
2023-05-08T15:16:33.611Z,98920.78
2023-05-08T15:19:00.232Z,98921.56
2023-05-08T15:21:27.402Z,98923.59
2023-05-08T15:23:55.124Z,98920.25
2023-05-08T15:26:23.159Z,98923.63
2023-05-08T15:28:50.924Z,98920.03
2023-05-08T15:31:18.197Z,98917.56
2023-05-08T15:33:45.291Z,98922.81
2023-05-08T15:36:15.350Z,98920.94
2023-05-08T15:38:42.549Z,98930.91
2023-05-08T15:41:15.342Z,98921.34
2023-05-08T15:43:42.902Z,98926.44
2023-05-08T15:46:09.671Z,98930.03
2023-05-08T15:48:36.191Z,98931.88
2023-05-08T15:51:02.708Z,98933.97
2023-05-08T15:53:29.250Z,98928.50
2023-05-08T15:55:57.127Z,98932.75
2023-05-08T15:58:24.031Z,98932.41
2023-05-08T16:00:50.575Z,98932.34
2023-05-08T16:03:17.288Z,98936.09
2023-05-08T16:05:44.016Z,98943.59
2023-05-08T16:08:12.869Z,98937.03
2023-05-08T16:10:41.156Z,98941.88
2023-05-08T16:13:08.265Z,98943.63
2023-05-08T16:15:35.143Z,98945.97
2023-05-08T16:18:01.889Z,98950.66
2023-05-08T16:20:28.470Z,98951.22
2023-05-08T16:22:55.877Z,98945.03
2023-05-08T16:25:22.857Z,98954.09
2023-05-08T16:27:49.477Z,98944.66
2023-05-08T16:30:16.535Z,98948.69
2023-05-08T16:32:45.579Z,98941.44
2023-05-08T16:35:12.291Z,98941.31
2023-05-08T16:37:39.027Z,98931.84
2023-05-08T16:40:07.701Z,98924.22
2023-05-08T16:42:44.803Z,98933.22
2023-05-08T16:45:12.178Z,98928.38
2023-05-08T16:47:38.958Z,98925.41
2023-05-08T16:50:05.809Z,98924.22
2023-05-08T16:52:35.477Z,98920.78
2023-05-08T16:55:02.035Z,98925.66
2023-05-08T16:57:28.754Z,98920.72
2023-05-08T16:59:55.232Z,98916.44
2023-05-08T17:02:21.980Z,98917.63
2023-05-08T17:04:49.290Z,98917.00
2023-05-08T17:07:16.520Z,98915.28
2023-05-08T17:09:43.712Z,98915.28
2023-05-08T17:12:10.356Z,98908.25
2023-05-08T17:14:39.386Z,98914.25
2023-05-08T17:17:06.325Z,98909.41
2023-05-08T17:19:32.834Z,98915.34
2023-05-08T17:21:59.900Z,98920.63
2023-05-08T17:24:26.904Z,98913.22
2023-05-08T17:26:53.446Z,98920.81
2023-05-08T17:29:20.056Z,98921.78
2023-05-08T17:31:46.657Z,98917.88
2023-05-08T17:34:13.305Z,98917.94
2023-05-08T17:36:39.771Z,98927.72
2023-05-08T17:39:06.212Z,98921.78
2023-05-08T17:41:32.759Z,98936.91
2023-05-08T17:43:59.224Z,98934.56
2023-05-08T17:46:25.685Z,98935.13
2023-05-08T17:48:52.201Z,98936.13
2023-05-08T17:51:18.680Z,98932.69
2023-05-08T17:53:45.109Z,98935.84
2023-05-08T17:56:11.718Z,98941.81
2023-05-08T17:58:38.199Z,98935.09
2023-05-08T18:01:06.178Z,98943.84
2023-05-08T18:03:32.686Z,98941.03
2023-05-08T18:05:59.129Z,98939.19
2023-05-08T18:08:25.563Z,98946.16
2023-05-08T18:10:52.064Z,98938.50
2023-05-08T18:13:18.811Z,98928.47
2023-05-08T18:15:45.311Z,98931.56
2023-05-08T18:18:11.870Z,98937.75
2023-05-08T18:20:38.347Z,98932.59
2023-05-08T18:23:04.794Z,98936.50
2023-05-08T18:25:31.257Z,98938.66
2023-05-08T18:27:58.847Z,98946.72
2023-05-08T18:30:25.458Z,98946.44
2023-05-08T18:32:53.322Z,98949.66
2023-05-08T18:35:21.488Z,98955.22
2023-05-08T18:37:47.950Z,98958.22
2023-05-08T18:40:14.775Z,98956.47
2023-05-08T18:42:41.496Z,98949.28
2023-05-08T18:45:08.773Z,98961.00
2023-05-08T18:47:35.417Z,98963.63
2023-05-08T18:50:01.865Z,98962.31
2023-05-08T18:52:28.348Z,98957.47
2023-05-08T18:54:54.904Z,98960.00
2023-05-08T18:57:21.424Z,98958.31
2023-05-08T18:59:47.955Z,98957.56
2023-05-08T19:02:14.576Z,98964.66
2023-05-08T19:04:41.297Z,98964.41
2023-05-08T19:07:07.770Z,98967.16
2023-05-08T19:09:34.311Z,98963.72
2023-05-08T19:12:00.959Z,98960.69
2023-05-08T19:14:27.527Z,98961.25
2023-05-08T19:16:55.058Z,98957.69
2023-05-08T19:19:23.467Z,98955.81
2023-05-08T19:21:50.158Z,98948.88
2023-05-08T19:24:20.375Z,98958.22
2023-05-08T19:26:47.228Z,98961.44
2023-05-08T19:29:13.698Z,98960.84
2023-05-08T19:31:40.305Z,98953.59
2023-05-08T19:34:06.938Z,98954.59
2023-05-08T19:36:36.073Z,98939.91
2023-05-08T19:39:04.088Z,98950.97
2023-05-08T19:41:30.579Z,98962.91
2023-05-08T19:43:57.212Z,98957.34
2023-05-08T19:46:23.896Z,98959.53
2023-05-08T19:48:50.431Z,98957.38
2023-05-08T19:51:20.704Z,98954.69
2023-05-08T19:53:47.316Z,98953.84
2023-05-08T19:56:13.718Z,98952.50
2023-05-08T19:58:43.074Z,98949.34
2023-05-08T20:01:09.660Z,98946.16
2023-05-08T20:03:36.373Z,98936.28
2023-05-08T20:06:02.971Z,98944.47
2023-05-08T20:08:30.166Z,98947.31
2023-05-08T20:10:57.757Z,98937.75
2023-05-08T20:13:24.276Z,98944.28
2023-05-08T20:15:51.052Z,98947.31
2023-05-08T20:18:18.090Z,98940.56
2023-05-08T20:20:46.632Z,98951.28
2023-05-08T20:23:13.072Z,98951.78
2023-05-08T20:25:41.979Z,98951.59
2023-05-08T20:28:08.408Z,98951.81
2023-05-08T20:30:34.940Z,98945.13
2023-05-08T20:33:04.969Z,98942.25
2023-05-08T20:35:32.874Z,98948.31
2023-05-08T20:37:59.497Z,98943.44
2023-05-08T20:40:26.223Z,98944.91
2023-05-08T20:42:52.759Z,98949.94
2023-05-08T20:45:19.344Z,98943.59
2023-05-08T20:47:45.877Z,98947.41
2023-05-08T20:50:13.016Z,98953.59
2023-05-08T20:52:41.890Z,98946.72
2023-05-08T20:55:09.236Z,98947.53
2023-05-08T20:57:35.791Z,98945.53
2023-05-08T21:00:02.351Z,98938.06
2023-05-08T21:02:29.185Z,98936.22
2023-05-08T21:04:55.859Z,98926.97
2023-05-08T21:07:22.887Z,98934.47
2023-05-08T21:09:49.375Z,98924.41
2023-05-08T21:12:15.938Z,98925.63
2023-05-08T21:14:43.975Z,98915.19
2023-05-08T21:17:10.685Z,98924.97
2023-05-08T21:19:37.514Z,98913.72
2023-05-08T21:22:09.185Z,98924.84
2023-05-08T21:24:39.849Z,98914.41
2023-05-08T21:27:06.868Z,98916.13
2023-05-08T21:29:33.543Z,98917.94
2023-05-08T21:32:00.182Z,98914.13
2023-05-08T21:34:27.247Z,98913.09
2023-05-08T21:36:53.705Z,98913.78
2023-05-08T21:39:20.342Z,98912.47
2023-05-08T21:41:46.889Z,98916.31
2023-05-08T21:44:13.372Z,98917.13
2023-05-08T21:46:39.905Z,98919.00
2023-05-08T21:49:06.366Z,98904.25
2023-05-08T21:51:33.372Z,98908.25
2023-05-08T21:53:59.956Z,98895.66
2023-05-08T21:56:26.370Z,98901.03
2023-05-08T21:58:52.799Z,98901.19
2023-05-08T22:01:19.317Z,98896.16
2023-05-08T22:03:45.831Z,98907.06
2023-05-08T22:06:12.302Z,98904.19
2023-05-08T22:08:38.726Z,98899.00
2023-05-08T22:11:05.256Z,98898.00
2023-05-08T22:13:31.684Z,98893.66
2023-05-08T22:15:58.090Z,98898.47
2023-05-08T22:18:24.557Z,98886.72
2023-05-08T22:20:50.976Z,98881.03
2023-05-08T22:23:17.350Z,98876.53
2023-05-08T22:25:43.772Z,98884.25
2023-05-08T22:28:10.466Z,98877.72
2023-05-08T22:30:36.927Z,98878.38
2023-05-08T22:33:03.539Z,98867.47
2023-05-08T22:35:30.071Z,98869.69
2023-05-08T22:37:59.585Z,98869.19
2023-05-08T22:40:26.510Z,98866.66
2023-05-08T22:42:55.666Z,98870.50
2023-05-08T22:45:23.235Z,98861.78
2023-05-08T22:47:50.229Z,98860.25
2023-05-08T22:50:17.318Z,98855.91
2023-05-08T22:52:43.935Z,98855.41
2023-05-08T22:55:10.553Z,98849.72
2023-05-08T22:57:37.083Z,98847.03
2023-05-08T23:00:03.999Z,98841.16
2023-05-08T23:02:35.561Z,98845.19
2023-05-08T23:05:02.893Z,98843.84
2023-05-08T23:07:29.512Z,98844.38
2023-05-08T23:09:56.636Z,98835.13
2023-05-08T23:12:23.130Z,98839.28
2023-05-08T23:14:49.845Z,98833.28
2023-05-08T23:17:16.326Z,98835.97
2023-05-08T23:19:42.930Z,98839.00
2023-05-08T23:22:09.652Z,98829.59
2023-05-08T23:24:36.990Z,98824.22
2023-05-08T23:27:03.434Z,98814.84
2023-05-08T23:29:29.977Z,98821.72
2023-05-08T23:31:56.516Z,98821.56
2023-05-08T23:34:23.072Z,98818.06
2023-05-08T23:36:49.484Z,98825.91
2023-05-08T23:39:16.002Z,98823.72
2023-05-08T23:41:42.842Z,98811.00
2023-05-08T23:44:10.108Z,98816.38
2023-05-08T23:46:36.663Z,98819.22
2023-05-08T23:49:05.305Z,98817.72
2023-05-08T23:51:32.086Z,98817.38
2023-05-08T23:53:58.587Z,98809.34
2023-05-08T23:56:25.135Z,98806.81
2023-05-08T23:58:51.544Z,98815.00
